Terminal Aerodrome Forecast
Issued by NWS Shreveport, LA

Home | Current Version | Previous Version | Text Only | Print | Product List | Glossary On
Versions: 1 2 3 4 5 6 7 8 9 10 11 12 13 14 15 16 17
000
FTUS44 KSHV 182100 AAA
TAFTXK
TAF AMD
KTXK 182100Z 1821/1918 24006KT P6SM VCTS FEW035 BKN050CB BKN200
     FM190000 19004KT P6SM SCT150 SCT250
     FM191200 24005KT P6SM SCT050 SCT250=

USA.gov is the U.S. government's official web portal to all federal, state and local government web resources and services.